Time;durP1;ratioP1;P1;durP2;ratioP2;P2;SDS_P1;SDS_P2;PMS_P1;PMS_P2;Temp;Humidity;BMP_temperature;BMP_pressure;BME280_temperature;BME280_humidity;BME280_pressure;Samples;Min_cycle;Max_cycle;Signal;HPM_P1;HPM_P2
2022/01/29 00:00:32;;;;;;;12.80;7.03;;;3.30;99.90;;;;;;1828659;76;21152;-78
2022/01/29 00:03:00;;;;;;;8.88;5.70;;;3.10;99.90;;;;;;1819233;78;21089;-78
2022/01/29 00:05:27;;;;;;;8.03;5.87;;;3.20;99.90;;;;;;1818784;78;21226;-77
2022/01/29 00:07:54;;;;;;;9.78;5.83;;;3.30;99.90;;;;;;1836637;76;21082;-76
2022/01/29 00:10:22;;;;;;;13.03;6.00;;;3.30;99.90;;;;;;1825292;76;21085;-77
2022/01/29 00:12:49;;;;;;;10.88;6.28;;;3.30;99.90;;;;;;1830657;76;21086;-76
2022/01/29 00:15:16;;;;;;;8.60;5.72;;;3.20;99.90;;;;;;1841082;76;21066;-77
2022/01/29 00:17:44;;;;;;;10.03;6.37;;;3.20;99.90;;;;;;1850237;76;21147;-79
2022/01/29 00:20:11;;;;;;;14.28;6.90;;;3.10;99.90;;;;;;1829956;77;21555;-77
2022/01/29 00:22:38;;;;;;;11.28;6.33;;;3.20;99.90;;;;;;1835069;76;21479;-77
2022/01/29 00:25:09;;;;;;;14.83;7.25;;;3.20;99.90;;;;;;1836243;77;21164;-76
2022/01/29 00:27:36;;;;;;;7.47;5.60;;;3.10;99.90;;;;;;1828002;77;21152;-77
2022/01/29 00:30:09;;;;;;;9.73;6.67;;;3.10;99.90;;;;;;1832063;77;21092;-78
2022/01/29 00:32:35;;;;;;;14.33;6.62;;;3.10;99.90;;;;;;1845718;75;21103;-78
2022/01/29 00:35:02;;;;;;;11.38;6.47;;;3.00;99.90;;;;;;1832463;78;21067;-78
2022/01/29 00:37:29;;;;;;;10.90;7.30;;;3.00;99.90;;;;;;1841325;77;21086;-78
2022/01/29 00:39:57;;;;;;;11.38;6.65;;;3.00;99.90;;;;;;1842034;77;21521;-78
2022/01/29 00:42:25;;;;;;;12.13;6.92;;;2.80;99.90;;;;;;1839660;77;21148;-77
2022/01/29 00:44:53;;;;;;;12.47;7.40;;;2.80;99.90;;;;;;1844784;77;21198;-78
2022/01/29 00:47:20;;;;;;;12.70;7.25;;;2.90;99.90;;;;;;1842346;77;21081;-76
2022/01/29 00:49:48;;;;;;;9.80;6.62;;;2.90;99.90;;;;;;1840276;77;21130;-76
2022/01/29 00:52:15;;;;;;;8.85;6.45;;;2.80;99.90;;;;;;1829783;76;21494;-76
2022/01/29 00:54:44;;;;;;;14.95;7.50;;;2.70;99.90;;;;;;1829880;76;21058;-76
2022/01/29 00:57:11;;;;;;;11.68;7.53;;;2.70;99.90;;;;;;1837173;76;21093;-77
2022/01/29 00:59:39;;;;;;;8.08;6.37;;;2.80;99.90;;;;;;1832110;76;21160;-77
2022/01/29 01:02:09;;;;;;;9.40;6.72;;;2.90;99.90;;;;;;1834823;76;21152;-77
2022/01/29 01:04:39;;;;;;;9.83;6.87;;;2.90;99.90;;;;;;1822465;76;21514;-78
2022/01/29 01:07:07;;;;;;;21.90;7.58;;;2.70;99.90;;;;;;1824824;77;21102;-77
2022/01/29 01:09:34;;;;;;;13.20;5.95;;;2.70;99.90;;;;;;1827751;77;21497;-77
2022/01/29 01:12:02;;;;;;;10.38;6.50;;;2.60;99.90;;;;;;1843821;77;21147;-76
2022/01/29 01:14:29;;;;;;;11.73;6.90;;;2.70;99.90;;;;;;1821582;76;21077;-77
2022/01/29 01:16:56;;;;;;;13.78;6.55;;;2.60;99.90;;;;;;1840728;76;21490;-77
2022/01/29 01:19:26;;;;;;;12.07;6.83;;;2.50;99.90;;;;;;1846386;76;21070;-77
2022/01/29 01:21:55;;;;;;;11.48;6.50;;;2.50;99.90;;;;;;1831105;77;21163;-77
2022/01/29 01:24:22;;;;;;;10.80;6.85;;;2.50;99.90;;;;;;1837767;76;21474;-76
2022/01/29 01:26:50;;;;;;;8.00;5.97;;;2.60;99.90;;;;;;1856524;77;21216;-77
2022/01/29 01:29:17;;;;;;;10.10;6.42;;;2.70;99.90;;;;;;1841725;77;21141;-76
2022/01/29 01:31:45;;;;;;;26.25;6.67;;;2.60;99.90;;;;;;1835923;77;21505;-77
2022/01/29 01:34:14;;;;;;;18.07;8.03;;;2.60;99.90;;;;;;1836809;76;21228;-77
2022/01/29 01:36:50;;;;;;;14.73;7.65;;;2.60;99.90;;;;;;1840223;77;21154;-77
2022/01/29 01:39:17;;;;;;;12.35;7.10;;;2.60;99.90;;;;;;1850708;77;21498;-77
2022/01/29 01:41:52;;;;;;;13.80;8.08;;;2.50;99.90;;;;;;1835138;77;21079;-76
2022/01/29 01:44:13;;;;;;;20.40;7.58;;;2.70;99.90;;;;;;1827826;77;21071;-78
2022/01/29 01:46:40;;;;;;;15.18;7.08;;;2.70;99.90;;;;;;1830706;76;21189;-77
2022/01/29 01:49:16;;;;;;;7.58;6.17;;;2.80;99.90;;;;;;1821588;79;21079;-78
2022/01/29 01:51:44;;;;;;;10.72;6.53;;;2.70;99.90;;;;;;1829809;76;21487;-76
2022/01/29 01:54:12;;;;;;;7.45;5.22;;;2.60;99.90;;;;;;1839105;76;21161;-78
2022/01/29 01:56:39;;;;;;;11.95;6.37;;;2.80;99.90;;;;;;1836234;77;21164;-75
2022/01/29 01:59:06;;;;;;;10.72;6.17;;;2.70;99.90;;;;;;1840717;77;21503;-76
2022/01/29 02:01:33;;;;;;;7.50;5.55;;;2.70;99.90;;;;;;1847047;77;21204;-77
2022/01/29 02:04:01;;;;;;;6.97;5.65;;;2.80;99.90;;;;;;1830029;77;21089;-76
2022/01/29 02:06:31;;;;;;;9.15;5.83;;;2.90;99.90;;;;;;1830590;77;21164;-77
2022/01/29 02:09:00;;;;;;;9.50;5.60;;;2.80;99.90;;;;;;1841335;77;21098;-79
2022/01/29 02:11:30;;;;;;;10.63;5.03;;;2.90;99.90;;;;;;1839910;77;21133;-77
2022/01/29 02:14:00;;;;;;;9.65;4.85;;;2.90;99.90;;;;;;1836220;76;21235;-77
2022/01/29 02:16:28;;;;;;;9.20;4.40;;;3.00;99.90;;;;;;1825756;76;21542;-76
2022/01/29 02:18:55;;;;;;;8.80;5.47;;;2.90;99.90;;;;;;1818859;79;21067;-77
2022/01/29 02:21:28;;;;;;;7.30;4.78;;;3.00;99.90;;;;;;1829630;77;21494;-77
2022/01/29 02:23:55;;;;;;;5.58;4.03;;;3.00;99.90;;;;;;1837416;77;21479;-77
2022/01/29 02:26:22;;;;;;;7.25;4.70;;;3.00;99.90;;;;;;1836756;76;21085;-77
2022/01/29 02:28:49;;;;;;;10.60;4.70;;;3.00;99.90;;;;;;1840775;77;21093;-76
2022/01/29 02:31:17;;;;;;;7.17;4.28;;;3.00;99.90;;;;;;1827584;76;21160;-76
2022/01/29 02:33:44;;;;;;;4.83;4.03;;;3.00;99.90;;;;;;1840740;77;21082;-77
2022/01/29 02:36:12;;;;;;;7.72;4.67;;;3.00;99.90;;;;;;1848620;77;21165;-76
2022/01/29 02:38:39;;;;;;;10.18;4.67;;;3.00;99.90;;;;;;1833839;76;21090;-77
2022/01/29 02:41:07;;;;;;;12.55;4.47;;;3.00;99.90;;;;;;1834874;76;21183;-77
2022/01/29 02:43:46;;;;;;;7.45;4.72;;;2.90;99.90;;;;;;1833196;77;21111;-77
2022/01/29 02:46:20;;;;;;;8.93;4.25;;;2.80;99.90;;;;;;1825781;77;21145;-77
2022/01/29 02:48:36;;;;;;;7.50;4.80;;;2.70;99.90;;;;;;1824793;77;21504;-77
2022/01/29 02:51:04;;;;;;;7.90;4.78;;;2.70;99.90;;;;;;1841934;77;21062;-77
2022/01/29 02:53:31;;;;;;;6.65;3.62;;;2.80;99.90;;;;;;1835396;76;21089;-77
2022/01/29 02:55:58;;;;;;;8.73;4.42;;;2.90;99.90;;;;;;1845364;76;21214;-76
2022/01/29 02:58:26;;;;;;;5.50;3.83;;;3.00;99.90;;;;;;1839900;76;21159;-76
2022/01/29 03:00:53;;;;;;;6.47;4.35;;;2.80;99.90;;;;;;1823519;76;21585;-78
2022/01/29 03:03:20;;;;;;;11.63;4.78;;;2.80;99.90;;;;;;1828591;77;21087;-77
2022/01/29 03:05:48;;;;;;;4.20;3.72;;;2.80;99.90;;;;;;1825185;76;21590;-77
2022/01/29 03:08:15;;;;;;;7.97;4.33;;;2.70;99.90;;;;;;1834245;76;21156;-78
2022/01/29 03:10:42;;;;;;;8.90;4.60;;;2.70;99.90;;;;;;1844761;76;21136;-78
2022/01/29 03:13:10;;;;;;;11.43;5.67;;;2.80;99.90;;;;;;1833186;76;21229;-77
2022/01/29 03:15:37;;;;;;;10.32;5.33;;;2.80;99.90;;;;;;1835118;76;21163;-78
2022/01/29 03:18:04;;;;;;;12.10;5.83;;;2.70;99.90;;;;;;1833762;77;21085;-76
2022/01/29 03:20:32;;;;;;;8.75;4.67;;;2.70;99.90;;;;;;1832905;76;21061;-77
2022/01/29 03:22:59;;;;;;;6.97;4.62;;;2.80;99.90;;;;;;1843316;77;21180;-78
2022/01/29 03:25:27;;;;;;;9.88;5.03;;;2.80;99.90;;;;;;1832317;77;21156;-78
2022/01/29 03:27:54;;;;;;;8.25;4.75;;;2.80;99.90;;;;;;1830390;77;21098;-75
2022/01/29 03:30:21;;;;;;;8.98;4.97;;;2.90;99.90;;;;;;1823860;77;21516;-76
2022/01/29 03:32:49;;;;;;;8.15;4.60;;;2.70;99.90;;;;;;1850633;77;21168;-75
2022/01/29 03:35:16;;;;;;;6.30;4.70;;;2.60;99.90;;;;;;1833193;76;21082;-75
2022/01/29 03:37:44;;;;;;;12.40;4.50;;;2.60;99.90;;;;;;1819184;77;21096;-75
2022/01/29 03:40:11;;;;;;;6.33;4.05;;;2.70;99.90;;;;;;1822311;76;21091;-78
2022/01/29 03:42:46;;;;;;;5.70;4.12;;;2.70;99.90;;;;;;1828145;76;21114;-79
2022/01/29 03:45:10;;;;;;;6.78;3.90;;;2.50;99.90;;;;;;1835040;76;21210;-76
2022/01/29 03:47:37;;;;;;;5.12;3.70;;;2.60;99.90;;;;;;1838341;77;21147;-79
2022/01/29 03:50:05;;;;;;;7.37;4.10;;;2.60;99.90;;;;;;1833425;76;21544;-78
2022/01/29 03:52:33;;;;;;;6.35;3.77;;;2.50;99.90;;;;;;1833025;77;21082;-78
2022/01/29 03:55:00;;;;;;;5.55;3.85;;;2.40;99.90;;;;;;1840928;76;21085;-78
2022/01/29 03:57:27;;;;;;;7.00;4.03;;;2.50;99.90;;;;;;1827895;76;21533;-78
2022/01/29 03:59:54;;;;;;;10.10;3.95;;;2.50;99.90;;;;;;1840766;77;21209;-75
2022/01/29 04:02:22;;;;;;;10.15;5.15;;;2.50;99.90;;;;;;1842479;76;21073;-76
2022/01/29 04:04:51;;;;;;;5.87;4.15;;;2.60;99.90;;;;;;1832844;77;21136;-77
2022/01/29 04:07:18;;;;;;;5.08;4.03;;;2.60;99.90;;;;;;1836143;76;21697;-77
2022/01/29 04:09:51;;;;;;;7.87;4.10;;;2.50;99.90;;;;;;1832388;76;21482;-76
2022/01/29 04:12:18;;;;;;;5.70;4.08;;;2.50;99.90;;;;;;1830892;77;21120;-77
2022/01/29 04:14:45;;;;;;;4.85;3.83;;;2.70;99.90;;;;;;1835810;76;21185;-78
2022/01/29 04:17:13;;;;;;;7.62;3.92;;;2.70;99.90;;;;;;1825155;76;21097;-77
2022/01/29 04:19:41;;;;;;;8.05;4.20;;;2.60;99.90;;;;;;1825035;77;21099;-77
2022/01/29 04:22:09;;;;;;;5.60;3.95;;;2.60;99.90;;;;;;1827151;77;21171;-78
2022/01/29 04:24:37;;;;;;;5.95;3.40;;;2.70;99.90;;;;;;1839524;77;21213;-77
2022/01/29 04:27:14;;;;;;;6.12;3.70;;;2.80;99.90;;;;;;1841891;77;21159;-78
2022/01/29 04:29:42;;;;;;;5.05;3.10;;;2.80;99.90;;;;;;1833061;77;21074;-75
2022/01/29 04:32:13;;;;;;;3.92;3.15;;;2.80;99.90;;;;;;1833550;77;21098;-75
2022/01/29 04:34:37;;;;;;;5.87;3.42;;;2.70;99.90;;;;;;1840156;77;21147;-75
2022/01/29 04:37:06;;;;;;;10.15;3.20;;;2.80;99.90;;;;;;1837051;76;21055;-74
2022/01/29 04:39:33;;;;;;;6.05;2.92;;;2.90;99.90;;;;;;1841540;77;21168;-75
2022/01/29 04:42:00;;;;;;;8.13;2.67;;;3.00;99.90;;;;;;1836416;77;21100;-75
2022/01/29 04:44:28;;;;;;;14.95;2.80;;;3.10;99.90;;;;;;1849222;77;21067;-74
2022/01/29 04:46:55;;;;;;;4.70;2.80;;;3.00;99.90;;;;;;1835930;76;21222;-76
2022/01/29 04:49:22;;;;;;;6.05;2.60;;;3.10;99.90;;;;;;1839977;76;21160;-76
2022/01/29 04:51:50;;;;;;;8.78;2.83;;;3.10;99.90;;;;;;1832132;76;21257;-74
2022/01/29 04:54:17;;;;;;;3.22;2.52;;;3.20;99.90;;;;;;1822009;79;21540;-75
2022/01/29 04:56:44;;;;;;;3.52;2.70;;;3.10;99.90;;;;;;1834352;76;21157;-75
2022/01/29 04:59:11;;;;;;;4.92;2.62;;;3.10;99.90;;;;;;1825849;78;21173;-75
2022/01/29 05:01:39;;;;;;;6.95;2.10;;;3.20;99.90;;;;;;1831805;76;21074;-75
2022/01/29 05:04:06;;;;;;;4.10;2.67;;;3.20;99.90;;;;;;1827165;76;21067;-75
2022/01/29 05:06:33;;;;;;;5.35;2.10;;;3.10;99.90;;;;;;1818268;77;21086;-74
2022/01/29 05:09:01;;;;;;;4.03;2.52;;;3.20;99.90;;;;;;1837257;76;21192;-75
2022/01/29 05:11:28;;;;;;;2.55;2.35;;;3.20;99.90;;;;;;1830715;77;21148;-75
2022/01/29 05:13:56;;;;;;;6.45;2.60;;;3.40;99.90;;;;;;1824820;76;21087;-75
2022/01/29 05:16:36;;;;;;;3.55;2.25;;;3.30;99.90;;;;;;1813187;79;21439;-74
2022/01/29 05:27:09;;;;;;;3.98;2.83;;;2.90;99.90;;;;;;1826650;77;21102;-75
2022/01/29 05:29:37;;;;;;;3.42;2.58;;;2.90;99.90;;;;;;1832536;76;21167;-74
2022/01/29 05:32:09;;;;;;;3.67;2.77;;;2.90;99.90;;;;;;1830261;76;21189;-75
2022/01/29 05:34:36;;;;;;;4.20;2.80;;;3.00;99.90;;;;;;1829490;76;21086;-76
2022/01/29 05:37:04;;;;;;;10.25;2.62;;;3.10;99.90;;;;;;1813529;76;21145;-74
2022/01/29 05:39:31;;;;;;;6.80;2.90;;;3.20;99.90;;;;;;1825106;76;21152;-75
2022/01/29 05:41:59;;;;;;;9.33;3.22;;;3.10;99.90;;;;;;1826978;77;21218;-75
2022/01/29 05:44:27;;;;;;;6.05;2.83;;;3.10;99.90;;;;;;1820534;76;21098;-75
2022/01/29 05:46:54;;;;;;;3.85;2.58;;;3.10;99.90;;;;;;1831060;76;21155;-76
2022/01/29 05:49:21;;;;;;;5.17;2.50;;;3.20;99.90;;;;;;1820673;78;21062;-76
2022/01/29 05:51:48;;;;;;;6.05;3.20;;;3.10;99.90;;;;;;1819893;78;21226;-76
2022/01/29 05:54:16;;;;;;;5.17;3.47;;;3.20;99.90;;;;;;1825524;78;21077;-74
2022/01/29 05:56:43;;;;;;;6.72;3.37;;;3.10;99.90;;;;;;1838718;77;21093;-74
2022/01/29 05:59:11;;;;;;;10.50;4.00;;;3.20;99.90;;;;;;1840028;77;21517;-77
2022/01/29 06:01:38;;;;;;;7.92;4.67;;;3.30;99.90;;;;;;1836522;77;21164;-75
2022/01/29 06:04:06;;;;;;;7.50;4.72;;;3.20;99.90;;;;;;1823321;77;21094;-74
2022/01/29 06:06:34;;;;;;;8.08;4.97;;;3.20;99.90;;;;;;1823176;76;21098;-75
2022/01/29 06:09:04;;;;;;;8.75;5.47;;;3.10;99.90;;;;;;1833364;76;21234;-76
2022/01/29 06:11:31;;;;;;;16.27;6.85;;;3.10;99.90;;;;;;1835354;76;21110;-75
2022/01/29 06:13:59;;;;;;;13.05;6.75;;;3.00;99.90;;;;;;1850926;76;21093;-75
2022/01/29 06:16:26;;;;;;;9.68;6.78;;;3.00;99.90;;;;;;1841612;76;21058;-76
2022/01/29 06:18:54;;;;;;;12.45;7.15;;;3.00;99.90;;;;;;1850578;77;21058;-74
2022/01/29 06:21:21;;;;;;;16.17;7.65;;;3.10;99.90;;;;;;1848789;76;21463;-75
2022/01/29 06:23:48;;;;;;;12.78;8.28;;;3.10;99.90;;;;;;1838692;76;21443;-73
2022/01/29 06:26:16;;;;;;;11.57;7.30;;;3.10;99.90;;;;;;1823527;77;21090;-75
2022/01/29 06:28:44;;;;;;;10.98;7.42;;;3.10;99.90;;;;;;1831847;76;21175;-74
2022/01/29 06:31:11;;;;;;;12.23;7.10;;;3.20;99.90;;;;;;1836704;76;21078;-74
2022/01/29 06:33:39;;;;;;;13.60;8.25;;;3.10;99.90;;;;;;1822213;76;21101;-75
2022/01/29 06:36:07;;;;;;;18.65;8.18;;;3.00;99.90;;;;;;1817287;79;21129;-75
2022/01/29 06:38:34;;;;;;;11.78;8.03;;;3.10;99.90;;;;;;1831531;77;21482;-75
2022/01/29 06:41:01;;;;;;;12.25;8.28;;;3.10;99.90;;;;;;1829482;77;21159;-77
2022/01/29 06:43:29;;;;;;;13.83;8.63;;;3.10;99.90;;;;;;1828200;77;21502;-74
2022/01/29 06:45:56;;;;;;;11.75;8.13;;;3.10;99.90;;;;;;1841130;77;21499;-75
2022/01/29 06:48:23;;;;;;;13.60;8.48;;;3.10;99.90;;;;;;1848804;77;21212;-76
2022/01/29 06:50:51;;;;;;;11.68;8.63;;;3.10;99.90;;;;;;1834938;77;21153;-75
2022/01/29 06:53:18;;;;;;;13.68;9.25;;;3.10;99.90;;;;;;1842846;77;21498;-76
2022/01/29 06:55:45;;;;;;;16.70;9.93;;;3.00;99.90;;;;;;1843242;77;21082;-75
2022/01/29 06:58:12;;;;;;;26.87;10.05;;;3.10;99.90;;;;;;1834592;77;21090;-76
2022/01/29 07:00:40;;;;;;;16.17;10.25;;;3.10;99.90;;;;;;1849981;77;21246;-77
2022/01/29 07:03:07;;;;;;;16.15;10.08;;;3.10;99.90;;;;;;1835725;76;21086;-75
2022/01/29 07:05:34;;;;;;;19.48;10.90;;;3.00;99.90;;;;;;1833434;77;21093;-77
2022/01/29 07:08:04;;;;;;;15.75;11.25;;;3.00;99.90;;;;;;1840989;77;21098;-77
2022/01/29 07:10:31;;;;;;;28.20;11.75;;;3.00;99.90;;;;;;1832238;76;21435;-78
2022/01/29 07:12:58;;;;;;;14.40;10.32;;;3.00;99.90;;;;;;1834464;76;21152;-79
2022/01/29 07:15:25;;;;;;;16.95;11.08;;;3.10;99.90;;;;;;1837459;77;21273;-78
2022/01/29 07:17:53;;;;;;;16.45;11.53;;;3.00;99.90;;;;;;1825208;76;21098;-78
2022/01/29 07:20:22;;;;;;;17.17;11.40;;;3.00;99.90;;;;;;1830014;77;21086;-80
2022/01/29 07:22:49;;;;;;;18.35;11.95;;;3.10;99.90;;;;;;1842875;76;21485;-78
2022/01/29 07:25:16;;;;;;;21.80;10.72;;;3.20;99.90;;;;;;1831685;77;21099;-77
2022/01/29 07:27:43;;;;;;;15.13;11.75;;;3.20;99.90;;;;;;1847265;76;21200;-78
2022/01/29 07:30:12;;;;;;;17.52;12.25;;;3.20;99.90;;;;;;1836723;76;21102;-77
2022/01/29 07:32:45;;;;;;;26.05;12.50;;;3.20;99.90;;;;;;1839464;77;21173;-77
2022/01/29 07:35:13;;;;;;;16.25;12.47;;;3.10;99.90;;;;;;1832537;77;21088;-78
2022/01/29 07:37:42;;;;;;;15.80;11.80;;;3.20;99.90;;;;;;1839704;77;21168;-78
2022/01/29 07:40:09;;;;;;;28.15;12.53;;;3.30;99.90;;;;;;1832245;75;21163;-78
2022/01/29 07:42:37;;;;;;;28.05;11.68;;;3.30;99.90;;;;;;1844055;77;21501;-78
2022/01/29 07:45:05;;;;;;;16.12;11.83;;;3.40;99.90;;;;;;1823053;78;21102;-78
2022/01/29 07:47:36;;;;;;;14.58;10.93;;;3.50;99.90;;;;;;1838914;76;21195;-77
2022/01/29 07:50:04;;;;;;;14.70;10.32;;;3.50;99.90;;;;;;1844424;77;21113;-77
2022/01/29 07:52:32;;;;;;;25.45;11.53;;;3.60;99.90;;;;;;1842344;76;21098;-79
2022/01/29 07:54:59;;;;;;;16.15;11.03;;;3.40;99.90;;;;;;1829866;76;21187;-78
2022/01/29 07:57:28;;;;;;;15.03;10.32;;;3.40;99.90;;;;;;1826612;76;21524;-78
2022/01/29 07:59:55;;;;;;;12.73;8.55;;;3.60;99.90;;;;;;1827014;76;21098;-76
2022/01/29 08:02:22;;;;;;;11.90;8.50;;;3.60;99.90;;;;;;1830205;77;21070;-76
2022/01/29 08:04:50;;;;;;;11.57;8.05;;;3.70;99.90;;;;;;1843092;77;21178;-77
2022/01/29 08:07:17;;;;;;;12.03;7.28;;;3.70;99.90;;;;;;1824480;76;21580;-76
2022/01/29 08:09:44;;;;;;;8.08;5.75;;;3.70;99.90;;;;;;1838283;77;21086;-76
2022/01/29 08:12:12;;;;;;;11.28;7.15;;;3.70;99.90;;;;;;1838041;77;21081;-75
2022/01/29 08:14:39;;;;;;;12.85;7.97;;;3.60;99.90;;;;;;1839995;77;21471;-78
2022/01/29 08:17:07;;;;;;;13.75;7.87;;;3.70;99.90;;;;;;1825815;76;21159;-77
2022/01/29 08:19:35;;;;;;;10.90;7.62;;;3.70;99.90;;;;;;1828810;77;21160;-77
2022/01/29 08:22:02;;;;;;;12.63;7.17;;;3.70;99.90;;;;;;1840068;77;21175;-77
2022/01/29 08:24:30;;;;;;;13.58;6.80;;;3.70;99.90;;;;;;1833720;77;21524;-75
2022/01/29 08:26:57;;;;;;;11.73;5.28;;;3.70;99.90;;;;;;1840264;77;21239;-74
2022/01/29 08:29:25;;;;;;;11.20;5.35;;;3.90;99.90;;;;;;1848892;77;21062;-76
2022/01/29 08:31:52;;;;;;;11.55;5.05;;;4.00;99.90;;;;;;1833078;76;21517;-76
2022/01/29 08:34:20;;;;;;;10.55;5.40;;;4.00;99.90;;;;;;1818372;77;21086;-76
2022/01/29 08:36:49;;;;;;;7.37;5.12;;;4.10;99.90;;;;;;1827604;76;21094;-76
2022/01/29 08:39:16;;;;;;;7.60;4.90;;;4.00;99.90;;;;;;1832190;76;21094;-75
2022/01/29 08:41:43;;;;;;;13.40;4.60;;;4.10;99.90;;;;;;1829350;77;21175;-78
2022/01/29 08:44:11;;;;;;;6.28;4.03;;;4.20;99.90;;;;;;1827097;76;21136;-76
2022/01/29 08:46:40;;;;;;;8.73;4.30;;;4.20;99.90;;;;;;1845163;77;21088;-77
2022/01/29 08:49:10;;;;;;;6.78;4.12;;;4.10;99.90;;;;;;1828192;76;21168;-77
2022/01/29 08:51:38;;;;;;;9.70;3.92;;;4.20;99.90;;;;;;1828629;76;21148;-73
2022/01/29 08:54:06;;;;;;;6.35;3.80;;;4.30;99.90;;;;;;1832873;76;21101;-75
2022/01/29 08:56:34;;;;;;;9.18;3.95;;;4.40;99.90;;;;;;1836360;77;21089;-76
2022/01/29 08:59:01;;;;;;;4.45;3.22;;;4.50;99.90;;;;;;1840210;77;21121;-77
2022/01/29 09:01:32;;;;;;;7.35;3.45;;;4.80;99.90;;;;;;1845771;76;21151;-75
2022/01/29 09:03:58;;;;;;;6.87;3.15;;;4.80;99.90;;;;;;1824796;77;21085;-75
2022/01/29 09:06:26;;;;;;;12.68;3.10;;;4.90;99.90;;;;;;1832525;77;21070;-73
2022/01/29 09:08:53;;;;;;;6.17;3.25;;;4.90;99.90;;;;;;1828186;77;21485;-72
2022/01/29 09:11:20;;;;;;;5.87;3.47;;;5.00;99.90;;;;;;1824900;77;21550;-73
2022/01/29 09:13:48;;;;;;;9.90;3.02;;;5.10;99.90;;;;;;1839945;77;21222;-72
2022/01/29 09:16:15;;;;;;;5.33;3.15;;;5.10;99.90;;;;;;1834530;77;21086;-73
2022/01/29 09:18:42;;;;;;;6.65;3.35;;;5.10;99.90;;;;;;1828874;77;21163;-77
2022/01/29 09:21:10;;;;;;;5.12;3.35;;;5.30;99.90;;;;;;1839786;77;21177;-78
2022/01/29 09:23:37;;;;;;;3.98;2.83;;;5.40;99.90;;;;;;1828447;77;21148;-82
2022/01/29 09:26:04;;;;;;;8.25;3.37;;;5.50;99.90;;;;;;1829421;77;21151;-76
2022/01/29 09:28:32;;;;;;;11.25;3.52;;;5.50;99.90;;;;;;1840454;77;21156;-76
2022/01/29 09:30:59;;;;;;;4.10;2.75;;;5.70;99.90;;;;;;1837185;77;21563;-75
2022/01/29 09:33:26;;;;;;;6.12;2.98;;;5.70;99.90;;;;;;1828725;77;21090;-74
2022/01/29 09:35:53;;;;;;;8.83;3.20;;;5.80;99.90;;;;;;1824574;78;21470;-81
2022/01/29 09:38:21;;;;;;;5.03;2.83;;;5.70;99.90;;;;;;1829507;77;21093;-75
2022/01/29 09:40:48;;;;;;;3.87;2.85;;;5.60;99.90;;;;;;1833816;77;21158;-75
2022/01/29 09:43:15;;;;;;;5.75;3.02;;;5.40;99.90;;;;;;1829400;77;21244;-74
2022/01/29 09:45:44;;;;;;;4.45;3.05;;;5.40;99.90;;;;;;1839851;77;21153;-75
2022/01/29 09:48:11;;;;;;;8.43;3.20;;;5.50;99.90;;;;;;1840318;77;21133;-75
2022/01/29 09:50:39;;;;;;;5.87;3.55;;;5.50;99.90;;;;;;1849136;77;21159;-74
2022/01/29 09:53:07;;;;;;;4.22;2.83;;;5.60;99.90;;;;;;1829515;77;21098;-73
2022/01/29 09:55:34;;;;;;;4.67;3.22;;;5.80;99.90;;;;;;1832780;77;21084;-73
2022/01/29 09:58:02;;;;;;;4.33;3.00;;;6.00;99.90;;;;;;1830302;76;21211;-74
2022/01/29 10:00:31;;;;;;;4.22;3.12;;;6.30;99.90;;;;;;1827403;76;21109;-74
2022/01/29 10:03:14;;;;;;;7.05;3.20;;;6.40;99.90;;;;;;1830775;76;21160;-74
2022/01/29 10:05:43;;;;;;;5.95;3.35;;;6.50;99.90;;;;;;1823062;76;21153;-74
2022/01/29 10:08:13;;;;;;;4.78;2.90;;;6.50;99.90;;;;;;1830113;77;21140;-75
2022/01/29 10:10:45;;;;;;;4.90;2.83;;;6.70;99.90;;;;;;1826437;77;21102;-74
2022/01/29 10:13:32;;;;;;;4.35;3.00;;;7.00;99.90;;;;;;1827424;77;21470;-73
2022/01/29 10:16:23;;;;;;;9.13;3.58;;;7.10;99.90;;;;;;1831895;78;21170;-73
2022/01/29 10:19:04;;;;;;;5.30;3.65;;;6.90;99.90;;;;;;1838887;78;21225;-75
2022/01/29 10:21:37;;;;;;;5.25;3.27;;;7.10;99.90;;;;;;1832239;76;21210;-74
2022/01/29 10:24:06;;;;;;;6.50;3.40;;;6.90;99.90;;;;;;1830018;76;21082;-74
2022/01/29 10:26:38;;;;;;;11.53;3.65;;;6.90;99.90;;;;;;1816343;79;21109;-74
2022/01/29 10:29:07;;;;;;;5.92;3.42;;;6.80;99.90;;;;;;1826988;77;21506;-74
2022/01/29 10:31:42;;;;;;;5.55;3.20;;;6.70;99.90;;;;;;1835102;77;21071;-74
2022/01/29 10:34:30;;;;;;;4.08;3.00;;;7.00;99.90;;;;;;1828177;76;21510;-74
2022/01/29 10:37:20;;;;;;;5.53;3.58;;;6.90;99.90;;;;;;1829400;76;21168;-75
2022/01/29 10:39:50;;;;;;;8.03;3.47;;;6.70;99.90;;;;;;1835543;77;21065;-74
2022/01/29 10:42:18;;;;;;;;;;;6.70;99.90;;;;;;1838217;76;21168;-74
2022/01/29 10:44:48;;;;;;;4.47;3.15;;;6.60;99.90;;;;;;1844712;77;20123;-75
2022/01/29 10:47:15;;;;;;;4.60;3.35;;;6.70;99.90;;;;;;1827547;76;21097;-74
2022/01/29 10:49:58;;;;;;;4.65;3.60;;;6.70;99.90;;;;;;1831494;76;21086;-74
2022/01/29 10:52:32;;;;;;;3.75;3.08;;;6.50;99.90;;;;;;1840895;76;21089;-74
2022/01/29 10:55:02;;;;;;;5.65;3.83;;;6.60;99.90;;;;;;1841670;76;21092;-76
2022/01/29 10:57:34;;;;;;;5.85;3.87;;;6.60;99.90;;;;;;1830735;76;21075;-74
2022/01/29 11:00:03;;;;;;;6.42;3.35;;;6.50;99.90;;;;;;1830052;76;21179;-74
2022/01/29 11:02:31;;;;;;;6.92;3.83;;;6.50;99.90;;;;;;1844128;76;21156;-75
2022/01/29 11:05:01;;;;;;;3.85;3.45;;;6.70;99.90;;;;;;1828396;77;21097;-73
2022/01/29 11:07:29;;;;;;;4.75;3.52;;;6.80;99.90;;;;;;1828703;76;21238;-75
2022/01/29 11:09:56;;;;;;;5.95;3.60;;;6.90;99.90;;;;;;1825295;76;21262;-75
2022/01/29 11:12:26;;;;;;;5.58;3.87;;;6.80;99.90;;;;;;1834046;77;21093;-75
2022/01/29 11:14:55;;;;;;;9.23;4.17;;;6.90;99.90;;;;;;1836890;76;21494;-74
2022/01/29 11:17:26;;;;;;;6.28;4.30;;;6.80;99.90;;;;;;1844278;77;21209;-75
2022/01/29 11:19:54;;;;;;;6.33;4.00;;;6.80;99.90;;;;;;1822467;78;21089;-75
2022/01/29 11:22:24;;;;;;;5.10;3.67;;;6.90;99.90;;;;;;1833565;77;21462;-76
2022/01/29 11:24:57;;;;;;;3.52;3.17;;;6.90;99.90;;;;;;1838516;77;21273;-75
2022/01/29 11:27:32;;;;;;;3.55;3.15;;;7.00;99.90;;;;;;1836323;76;21093;-75
2022/01/29 11:30:11;;;;;;;5.58;2.95;;;6.90;99.90;;;;;;1839789;77;21086;-75
2022/01/29 11:32:42;;;;;;;5.17;3.02;;;7.10;99.90;;;;;;1821448;77;21090;-75
2022/01/29 11:35:10;;;;;;;;;;;7.00;99.90;;;;;;1850118;77;21101;-75
2022/01/29 11:37:49;;;;;;;4.03;2.77;;;7.00;99.90;;;;;;1838722;77;20149;-76
2022/01/29 11:40:19;;;;;;;5.20;3.10;;;7.00;99.90;;;;;;1835242;77;21164;-76
2022/01/29 11:42:55;;;;;;;4.70;3.10;;;7.00;99.90;;;;;;1823901;77;21160;-75
2022/01/29 11:45:51;;;;;;;2.98;2.58;;;7.00;99.90;;;;;;1832922;76;21133;-76
2022/01/29 11:48:30;;;;;;;2.80;2.15;;;7.00;99.90;;;;;;1836470;76;21274;-76
2022/01/29 11:50:59;;;;;;;;;;;7.00;99.90;;;;;;1848288;77;21163;-75
2022/01/29 11:53:41;;;;;;;8.60;2.62;;;7.00;99.90;;;;;;1829402;75;20131;-74
2022/01/29 11:56:27;;;;;;;5.00;2.65;;;7.00;99.90;;;;;;1823388;77;21089;-75
2022/01/29 11:59:23;;;;;;;4.10;2.37;;;7.00;99.90;;;;;;1838340;77;21062;-75
2022/01/29 12:02:04;;;;;;;3.22;2.20;;;7.00;99.90;;;;;;1844488;77;21081;-74
2022/01/29 12:05:03;;;;;;;2.77;2.12;;;7.10;99.90;;;;;;1849664;77;21101;-74
2022/01/29 12:07:36;;;;;;;2.67;1.80;;;7.10;99.90;;;;;;1845832;77;21171;-75
2022/01/29 12:10:07;;;;;;;2.75;1.98;;;7.10;99.90;;;;;;1829568;76;21217;-76
2022/01/29 12:12:36;;;;;;;2.62;2.08;;;7.20;99.90;;;;;;1818682;78;21416;-74
2022/01/29 12:15:15;;;;;;;2.12;1.57;;;7.20;99.90;;;;;;1838410;76;21077;-74
2022/01/29 12:17:46;;;;;;;2.45;1.75;;;7.20;99.90;;;;;;1827740;77;21656;-76
2022/01/29 12:20:16;;;;;;;2.75;1.75;;;7.00;99.90;;;;;;1831564;77;21155;-75
2022/01/29 12:22:44;;;;;;;1.32;1.00;;;7.10;99.90;;;;;;1827721;77;21065;-76
2022/01/29 12:25:13;;;;;;;2.05;1.55;;;7.00;99.90;;;;;;1829838;77;21530;-75
2022/01/29 12:27:55;;;;;;;1.70;1.60;;;6.90;99.90;;;;;;1835977;77;21082;-76
2022/01/29 12:30:27;;;;;;;1.65;1.55;;;6.90;99.90;;;;;;1836027;77;21125;-76
2022/01/29 12:33:03;;;;;;;2.45;1.67;;;6.90;99.90;;;;;;1828360;76;21093;-76
2022/01/29 12:35:42;;;;;;;2.40;1.92;;;6.90;99.90;;;;;;1819475;76;21471;-77
2022/01/29 12:38:12;;;;;;;2.85;2.25;;;6.90;99.90;;;;;;1832442;77;21093;-75
2022/01/29 12:40:40;;;;;;;8.20;2.27;;;6.90;99.90;;;;;;1828596;76;21083;-76
2022/01/29 12:43:25;;;;;;;3.87;1.82;;;6.80;99.90;;;;;;1831408;76;21341;-75
2022/01/29 12:45:54;;;;;;;4.95;2.10;;;6.80;99.90;;;;;;1834392;76;21152;-75
2022/01/29 12:48:22;;;;;;;2.83;1.82;;;6.90;99.90;;;;;;1819884;79;21147;-73
2022/01/29 12:50:49;;;;;;;3.55;1.80;;;6.90;99.90;;;;;;1828797;77;21098;-76
2022/01/29 12:53:20;;;;;;;2.08;1.72;;;6.90;99.90;;;;;;1831492;76;21627;-76
2022/01/29 12:56:00;;;;;;;3.10;1.72;;;6.90;99.90;;;;;;1827966;77;21552;-75
2022/01/29 12:58:32;;;;;;;1.35;1.25;;;6.90;99.90;;;;;;1829152;77;21093;-76
2022/01/29 13:01:12;;;;;;;1.87;1.55;;;7.00;99.90;;;;;;1835541;77;21483;-76
2022/01/29 13:03:39;;;;;;;2.20;1.57;;;7.00;99.90;;;;;;1839749;77;21170;-76
2022/01/29 13:06:17;;;;;;;1.85;1.42;;;7.10;99.90;;;;;;1850784;77;21154;-76
2022/01/29 13:08:44;;;;;;;2.20;1.50;;;7.10;99.90;;;;;;1832588;76;21070;-74
2022/01/29 13:11:30;;;;;;;1.77;1.65;;;7.20;99.90;;;;;;1826133;77;21170;-74